Time;durP1;ratioP1;P1;durP2;ratioP2;P2;SDS_P1;SDS_P2;PMS_P1;PMS_P2;Temp;Humidity;BMP_temperature;BMP_pressure;BME280_temperature;BME280_humidity;BME280_pressure;Samples;Min_cycle;Max_cycle;Signal;HPM_P1;HPM_P2
2022/03/05 00:00:12;;;;;;;6.80;1.13;;;4.70;99.90;;;;;;5031422;28;20252;-64
2022/03/05 00:02:38;;;;;;;3.97;1.10;;;4.60;99.90;;;;;;5045522;28;20169;-64
2022/03/05 00:05:04;;;;;;;5.27;1.07;;;4.60;99.90;;;;;;5051144;28;20213;-65
2022/03/05 00:07:30;;;;;;;1.93;0.97;;;4.60;99.90;;;;;;5051601;28;20197;-65
2022/03/05 00:09:56;;;;;;;4.23;1.03;;;4.80;99.90;;;;;;5050812;28;20258;-65
2022/03/05 00:12:22;;;;;;;3.53;1.20;;;5.00;99.90;;;;;;5050421;28;20315;-65
2022/03/05 00:14:48;;;;;;;7.67;1.13;;;4.90;99.90;;;;;;5049042;28;20275;-65
2022/03/05 00:17:13;;;;;;;2.17;0.90;;;4.70;99.90;;;;;;5049283;28;20184;-66
2022/03/05 00:19:39;;;;;;;5.27;1.00;;;4.10;99.90;;;;;;5050120;28;20572;-67
2022/03/05 00:22:05;;;;;;;4.10;1.00;;;4.60;99.90;;;;;;5051351;28;20204;-66
2022/03/05 00:24:31;;;;;;;8.87;1.70;;;4.50;99.90;;;;;;5050544;28;20359;-62
2022/03/05 00:26:57;;;;;;;5.80;1.30;;;4.40;99.90;;;;;;5050641;28;20223;-64
2022/03/05 00:29:25;;;;;;;4.00;1.20;;;4.50;99.90;;;;;;5036878;28;20182;-64
2022/03/05 00:31:51;;;;;;;5.70;1.43;;;4.40;99.90;;;;;;5050661;28;20256;-64
2022/03/05 00:34:17;;;;;;;5.83;1.17;;;;;;;;;;5043044;28;20860;-64
2022/03/05 00:36:43;;;;;;;3.03;1.23;;;;;;;;;;5030628;28;20643;-65
2022/03/05 00:39:09;;;;;;;4.87;1.10;;;4.50;99.90;;;;;;5046309;28;20177;-65
2022/03/05 00:41:34;;;;;;;4.80;1.00;;;4.50;99.90;;;;;;5050509;28;20235;-65
2022/03/05 00:44:00;;;;;;;5.23;1.33;;;4.60;99.90;;;;;;5049958;28;20244;-65
2022/03/05 00:46:27;;;;;;;6.10;1.40;;;4.50;99.90;;;;;;5050522;28;20266;-65
2022/03/05 00:48:53;;;;;;;8.10;1.20;;;4.90;99.90;;;;;;5050332;28;20534;-66
2022/03/05 00:51:19;;;;;;;9.03;1.40;;;4.50;99.90;;;;;;5049647;28;20265;-64
2022/03/05 00:53:44;;;;;;;3.67;1.30;;;4.50;99.90;;;;;;5050107;28;20267;-64
2022/03/05 00:56:10;;;;;;;5.57;1.00;;;4.50;99.90;;;;;;5049110;28;20208;-65
2022/03/05 00:58:36;;;;;;;4.10;1.23;;;4.50;99.90;;;;;;5049860;28;20161;-64
2022/03/05 01:01:02;;;;;;;7.07;1.40;;;4.90;99.90;;;;;;5049840;28;20589;-65
2022/03/05 01:03:28;;;;;;;7.63;1.13;;;4.60;99.90;;;;;;5050385;28;20537;-65
2022/03/05 01:05:54;;;;;;;9.10;1.73;;;4.60;99.90;;;;;;5049400;28;20205;-65
2022/03/05 01:08:20;;;;;;;6.03;1.43;;;4.90;99.90;;;;;;5045947;28;20538;-63
2022/03/05 01:10:46;;;;;;;6.70;1.90;;;4.70;99.90;;;;;;5048908;28;20180;-65
2022/03/05 01:13:12;;;;;;;5.10;1.30;;;4.60;99.90;;;;;;5049218;28;20359;-64
2022/03/05 01:15:38;;;;;;;6.90;1.70;;;4.90;99.90;;;;;;5033568;28;20678;-64
2022/03/05 01:18:03;;;;;;;5.93;1.77;;;4.40;99.90;;;;;;5033553;28;20308;-62
2022/03/05 01:20:29;;;;;;;8.30;2.10;;;4.60;99.90;;;;;;5042640;28;20166;-62
2022/03/05 01:22:55;;;;;;;10.47;1.40;;;4.70;99.90;;;;;;5045730;28;20534;-62
2022/03/05 01:25:21;;;;;;;7.10;1.17;;;4.70;99.90;;;;;;5037991;28;20687;-63
2022/03/05 01:27:46;;;;;;;8.73;1.10;;;4.70;99.90;;;;;;5049225;28;20169;-62
2022/03/05 01:30:13;;;;;;;6.07;1.20;;;5.20;99.90;;;;;;5038721;28;20189;-64
2022/03/05 01:32:38;;;;;;;8.47;1.50;;;4.80;99.90;;;;;;5034546;28;20174;-63
2022/03/05 01:35:04;;;;;;;8.13;1.20;;;4.90;99.90;;;;;;5034171;28;20606;-63
2022/03/05 01:37:31;;;;;;;6.50;1.20;;;4.90;99.90;;;;;;5034288;28;20184;-64
2022/03/05 01:39:57;;;;;;;5.07;1.17;;;5.00;99.90;;;;;;5034282;28;20214;-63
2022/03/05 01:42:24;;;;;;;4.93;1.00;;;4.90;99.90;;;;;;5048565;28;20181;-64
2022/03/05 01:44:50;;;;;;;7.50;0.93;;;5.40;99.90;;;;;;5051304;28;20293;-63
2022/03/05 01:47:16;;;;;;;7.80;1.40;;;5.40;99.90;;;;;;5042462;28;20256;-63
2022/03/05 01:49:42;;;;;;;7.63;1.17;;;5.00;99.90;;;;;;5052252;28;20177;-63
2022/03/05 01:52:08;;;;;;;7.30;1.20;;;5.10;99.90;;;;;;5038159;28;20182;-63
2022/03/05 01:54:34;;;;;;;5.93;1.20;;;5.40;99.90;;;;;;5031869;28;20243;-63
2022/03/05 01:57:01;;;;;;;4.73;1.03;;;5.10;99.90;;;;;;5033648;28;20653;-64
2022/03/05 01:59:27;;;;;;;5.30;1.20;;;5.20;99.90;;;;;;5033654;28;20697;-64
2022/03/05 02:01:53;;;;;;;6.90;1.30;;;5.40;99.90;;;;;;5032560;28;20173;-64
2022/03/05 02:04:19;;;;;;;11.17;1.40;;;5.10;99.90;;;;;;5047302;28;20197;-65
2022/03/05 02:06:44;;;;;;;4.27;1.30;;;5.20;99.90;;;;;;5053912;28;20181;-64
2022/03/05 02:09:10;;;;;;;5.43;1.20;;;5.20;99.90;;;;;;5053971;28;20173;-64
2022/03/05 02:11:36;;;;;;;5.07;1.13;;;5.20;99.90;;;;;;5053309;28;20177;-61
2022/03/05 02:14:02;;;;;;;8.50;1.23;;;5.20;99.90;;;;;;5053785;28;20172;-63
2022/03/05 02:16:28;;;;;;;12.67;1.53;;;5.20;99.90;;;;;;5052266;28;20254;-63
2022/03/05 02:18:57;;;;;;;10.20;1.53;;;5.10;99.90;;;;;;5052721;28;20184;-63
2022/03/05 02:21:27;;;;;;;7.90;1.13;;;5.10;99.90;;;;;;5052707;28;20200;-63
2022/03/05 02:23:54;;;;;;;6.40;1.30;;;5.10;99.90;;;;;;5053237;28;20178;-63
2022/03/05 02:26:21;;;;;;;7.83;1.00;;;5.20;99.90;;;;;;5044710;28;20349;-63
2022/03/05 02:28:47;;;;;;;4.37;1.20;;;5.00;99.90;;;;;;5044405;28;20177;-63
2022/03/05 02:31:12;;;;;;;7.33;1.20;;;5.00;99.90;;;;;;5040292;28;20189;-63
2022/03/05 02:33:39;;;;;;;5.23;0.90;;;4.80;99.90;;;;;;5037040;28;20533;-63
2022/03/05 02:36:05;;;;;;;5.53;1.27;;;4.90;99.90;;;;;;5052968;28;20481;-63
2022/03/05 02:38:31;;;;;;;4.57;1.10;;;4.60;99.90;;;;;;5048712;28;20184;-63
2022/03/05 02:40:57;;;;;;;7.07;0.90;;;4.90;99.90;;;;;;5030782;28;20178;-63
2022/03/05 02:43:23;;;;;;;6.77;1.03;;;5.40;99.90;;;;;;5035601;28;20284;-63
2022/03/05 02:45:50;;;;;;;9.03;1.33;;;4.50;99.90;;;;;;5045901;28;20220;-63
2022/03/05 02:48:17;;;;;;;6.97;0.97;;;4.50;99.90;;;;;;5050780;28;20632;-63
2022/03/05 02:50:43;;;;;;;6.57;1.17;;;5.10;99.90;;;;;;5030800;28;20676;-63
2022/03/05 02:53:09;;;;;;;10.33;1.50;;;4.50;99.90;;;;;;5031405;28;20166;-61
2022/03/05 02:55:35;;;;;;;8.13;1.37;;;4.70;99.90;;;;;;5031659;28;20662;-61
2022/03/05 02:58:02;;;;;;;8.37;1.30;;;4.40;99.90;;;;;;5031788;28;20185;-61
2022/03/05 03:00:28;;;;;;;9.17;1.23;;;4.70;99.90;;;;;;5032681;28;20178;-61
2022/03/05 03:02:54;;;;;;;8.43;1.50;;;4.30;99.90;;;;;;5051206;28;20172;-61
2022/03/05 03:05:21;;;;;;;6.03;0.90;;;4.30;99.90;;;;;;5051211;28;20215;-61
2022/03/05 03:07:47;;;;;;;10.60;1.47;;;4.40;99.90;;;;;;5051378;28;20184;-62
2022/03/05 03:10:13;;;;;;;6.47;1.30;;;4.30;99.90;;;;;;5051169;28;20203;-61
2022/03/05 03:12:39;;;;;;;9.83;1.20;;;4.80;99.90;;;;;;5051609;28;20248;-62
2022/03/05 03:15:10;;;;;;;10.00;1.37;;;4.50;99.90;;;;;;5051693;28;20257;-62
2022/03/05 03:17:44;;;;;;;6.90;1.50;;;4.20;99.90;;;;;;5051351;28;20287;-62
2022/03/05 03:20:14;;;;;;;9.00;0.97;;;4.60;99.90;;;;;;5051479;28;20184;-62
2022/03/05 03:22:40;;;;;;;5.30;1.13;;;4.30;99.90;;;;;;5050336;28;20227;-63
2022/03/05 03:25:07;;;;;;;7.90;1.20;;;4.30;99.90;;;;;;5050474;28;20609;-62
2022/03/05 03:27:33;;;;;;;10.40;1.37;;;4.30;99.90;;;;;;5050526;28;20256;-62
2022/03/05 03:29:58;;;;;;;4.37;1.10;;;3.90;99.90;;;;;;5050203;28;20577;-63
2022/03/05 03:32:24;;;;;;;7.43;1.33;;;4.20;99.90;;;;;;5049991;28;20212;-62
2022/03/05 03:34:50;;;;;;;9.70;1.47;;;3.50;99.90;;;;;;5050955;28;20172;-62
2022/03/05 03:37:16;;;;;;;8.13;1.40;;;4.30;99.90;;;;;;5051211;28;20616;-62
2022/03/05 03:39:41;;;;;;;8.97;1.33;;;4.30;99.90;;;;;;5045859;28;20193;-62
2022/03/05 03:42:07;;;;;;;9.37;1.20;;;4.30;99.90;;;;;;5030577;28;20284;-63
2022/03/05 03:44:33;;;;;;;4.93;1.20;;;4.40;99.90;;;;;;5030642;28;20213;-62
2022/03/05 03:46:58;;;;;;;8.47;1.30;;;4.80;99.90;;;;;;5034762;28;20170;-62
2022/03/05 03:49:24;;;;;;;7.13;1.17;;;4.60;99.90;;;;;;5043778;28;20204;-62
2022/03/05 03:51:50;;;;;;;4.17;1.20;;;4.60;99.90;;;;;;5050412;28;20173;-62
2022/03/05 03:54:16;;;;;;;5.03;1.20;;;4.80;99.90;;;;;;5031130;28;20221;-62
2022/03/05 03:56:42;;;;;;;8.07;1.20;;;4.70;99.90;;;;;;5031085;28;20186;-62
2022/03/05 03:59:08;;;;;;;6.20;1.23;;;4.80;99.90;;;;;;5030401;28;20303;-62
2022/03/05 04:01:34;;;;;;;7.13;1.27;;;4.80;99.90;;;;;;5030776;28;20208;-63
2022/03/05 04:04:00;;;;;;;8.97;1.40;;;5.10;99.90;;;;;;5030723;28;20615;-62
2022/03/05 04:08:41;;;;;;;4.50;1.00;;;4.90;99.90;;;;;;5031990;28;20174;-62
2022/03/05 04:09:11;;;;;;;5.67;0.80;;;5.10;99.90;;;;;;5051434;28;20225;-62
2022/03/05 04:11:37;;;;;;;12.13;1.53;;;5.00;99.90;;;;;;5050489;28;20262;-62
2022/03/05 04:14:03;;;;;;;5.20;1.30;;;5.00;99.90;;;;;;5051088;28;20185;-64
2022/03/05 04:16:28;;;;;;;4.57;1.27;;;4.80;99.90;;;;;;5050634;28;20181;-66
2022/03/05 04:18:54;;;;;;;5.57;1.00;;;5.10;99.90;;;;;;5043618;28;20182;-64
2022/03/05 04:21:19;;;;;;;5.37;1.30;;;5.10;99.90;;;;;;5030928;28;20235;-65
2022/03/05 04:23:45;;;;;;;6.13;1.37;;;5.20;99.90;;;;;;5050555;28;20177;-65
2022/03/05 04:26:11;;;;;;;10.30;1.43;;;5.20;99.90;;;;;;5049710;28;20242;-65
2022/03/05 04:28:36;;;;;;;4.60;1.37;;;5.20;99.90;;;;;;5041512;28;20652;-65
2022/03/05 04:31:02;;;;;;;11.63;1.40;;;5.10;99.90;;;;;;5040699;28;20731;-63
2022/03/05 04:33:28;;;;;;;6.47;1.33;;;5.30;99.90;;;;;;5049943;28;20235;-64
2022/03/05 04:35:54;;;;;;;7.97;1.40;;;5.20;99.90;;;;;;5042607;28;20239;-63
2022/03/05 04:38:20;;;;;;;12.23;1.80;;;5.20;99.90;;;;;;5039758;28;20659;-63
2022/03/05 04:40:45;;;;;;;8.00;1.57;;;5.20;99.90;;;;;;5033019;28;20186;-64
2022/03/05 04:43:11;;;;;;;13.40;1.63;;;5.20;99.90;;;;;;5049465;28;20209;-65
2022/03/05 04:45:37;;;;;;;5.40;1.53;;;5.20;99.90;;;;;;5050275;28;20201;-65
2022/03/05 04:48:03;;;;;;;8.37;1.87;;;5.40;99.90;;;;;;5047859;28;20656;-65
2022/03/05 04:50:29;;;;;;;11.63;1.80;;;5.20;99.90;;;;;;5050426;28;20180;-62
2022/03/05 04:52:55;;;;;;;10.10;1.53;;;5.30;99.90;;;;;;5048116;28;20197;-62
2022/03/05 04:55:20;;;;;;;10.13;1.50;;;5.20;99.90;;;;;;5037861;28;20381;-62
2022/03/05 04:57:46;;;;;;;14.67;2.13;;;5.20;99.90;;;;;;5049894;28;20170;-62
2022/03/05 05:00:12;;;;;;;8.20;1.80;;;5.20;99.90;;;;;;5042572;28;20188;-61
2022/03/05 05:02:38;;;;;;;10.50;1.67;;;5.20;99.90;;;;;;5039528;28;20177;-62
2022/03/05 05:05:05;;;;;;;10.10;2.17;;;5.20;99.90;;;;;;5048159;28;20220;-61
2022/03/05 05:07:31;;;;;;;15.20;2.07;;;5.20;99.90;;;;;;5036067;28;20226;-61
2022/03/05 05:09:57;;;;;;;15.10;1.57;;;5.20;99.90;;;;;;5044086;28;20177;-62
2022/03/05 05:12:23;;;;;;;7.53;1.87;;;5.20;99.90;;;;;;5042855;28;20177;-61
2022/03/05 05:14:48;;;;;;;8.67;1.80;;;5.20;99.90;;;;;;5048821;28;20173;-62
2022/03/05 05:17:14;;;;;;;6.80;2.07;;;5.20;99.90;;;;;;5029224;28;20604;-62
2022/03/05 05:19:40;;;;;;;11.03;1.90;;;5.10;99.90;;;;;;5029756;28;20182;-61
2022/03/05 05:22:06;;;;;;;9.43;2.10;;;5.10;99.90;;;;;;5027493;28;20758;-62
2022/03/05 05:24:35;;;;;;;8.23;1.60;;;5.10;99.90;;;;;;5029479;28;20295;-63
2022/03/05 05:27:01;;;;;;;8.17;1.80;;;5.20;99.90;;;;;;5030180;28;20199;-63
2022/03/05 05:29:27;;;;;;;9.97;2.20;;;5.00;99.90;;;;;;5048654;28;20876;-63
2022/03/05 05:31:53;;;;;;;5.87;1.97;;;5.00;99.90;;;;;;5049340;28;20209;-64
2022/03/05 05:34:19;;;;;;;10.77;2.10;;;5.30;99.90;;;;;;5049335;28;20641;-62
2022/03/05 05:36:45;;;;;;;9.47;2.10;;;4.90;99.90;;;;;;5049841;28;20248;-62
2022/03/05 05:39:11;;;;;;;8.93;2.10;;;4.90;99.90;;;;;;5049163;28;20654;-62
2022/03/05 05:41:38;;;;;;;5.63;1.83;;;4.90;99.90;;;;;;5048459;28;20276;-61
2022/03/05 05:44:06;;;;;;;12.37;2.00;;;5.20;99.90;;;;;;5049374;28;20228;-61
2022/03/05 05:46:32;;;;;;;9.57;3.20;;;5.00;99.90;;;;;;5048930;28;20212;-61
2022/03/05 05:48:58;;;;;;;7.33;2.20;;;5.00;99.90;;;;;;5049984;28;20201;-60
2022/03/05 05:51:25;;;;;;;11.27;2.40;;;5.30;99.90;;;;;;5049931;28;20629;-61
2022/03/05 05:53:51;;;;;;;5.80;2.57;;;4.80;99.90;;;;;;5050039;28;20173;-61
2022/03/05 05:56:17;;;;;;;13.10;3.43;;;;;;;;;;5049087;28;20533;-62
2022/03/05 05:58:43;;;;;;;11.07;3.13;;;4.80;99.90;;;;;;5049285;28;20180;-63
2022/03/05 06:01:09;;;;;;;7.47;2.90;;;4.90;99.90;;;;;;5049684;28;20263;-65
2022/03/05 06:03:35;;;;;;;13.33;3.60;;;4.80;99.90;;;;;;5047974;28;20203;-65
2022/03/05 06:06:00;;;;;;;8.63;3.33;;;4.80;99.90;;;;;;5029369;28;20218;-66
2022/03/05 06:08:26;;;;;;;15.63;3.63;;;5.00;99.90;;;;;;5028703;28;20676;-67
2022/03/05 06:10:54;;;;;;;13.23;4.00;;;4.80;99.90;;;;;;5029569;28;20629;-66
2022/03/05 06:13:20;;;;;;;11.07;3.73;;;4.90;99.90;;;;;;5036429;28;20173;-66
2022/03/05 06:15:46;;;;;;;7.67;3.27;;;5.10;99.90;;;;;;5052361;28;20169;-66
2022/03/05 06:18:12;;;;;;;11.87;4.20;;;4.90;99.90;;;;;;5048914;28;20188;-66
2022/03/05 06:20:38;;;;;;;11.77;4.27;;;5.20;99.90;;;;;;5033340;28;20182;-66
2022/03/05 06:23:04;;;;;;;15.27;4.50;;;5.20;99.90;;;;;;5043144;28;20285;-66
2022/03/05 06:25:30;;;;;;;11.47;4.20;;;5.10;99.90;;;;;;5033106;28;20214;-66
2022/03/05 06:27:56;;;;;;;12.63;4.40;;;5.60;99.90;;;;;;5040712;28;20184;-66
2022/03/05 06:30:22;;;;;;;11.20;4.03;;;5.10;99.90;;;;;;5048808;28;20704;-66
2022/03/05 06:32:48;;;;;;;14.70;4.60;;;5.10;99.90;;;;;;5042212;28;20173;-66
2022/03/05 06:35:14;;;;;;;11.93;4.30;;;5.20;99.90;;;;;;5051392;28;20315;-66
2022/03/05 06:37:40;;;;;;;9.83;4.43;;;5.20;99.90;;;;;;5035586;28;20166;-66
2022/03/05 06:40:06;;;;;;;12.87;4.67;;;5.30;99.90;;;;;;5031066;28;20205;-65
2022/03/05 06:42:32;;;;;;;8.93;4.43;;;5.30;99.90;;;;;;5032350;28;20283;-65
2022/03/05 06:44:58;;;;;;;12.47;4.67;;;5.10;99.90;;;;;;5032479;28;20210;-65
2022/03/05 06:47:24;;;;;;;13.63;4.70;;;5.40;99.90;;;;;;5032348;28;20185;-65
2022/03/05 06:49:49;;;;;;;9.77;4.77;;;5.30;99.90;;;;;;5080572;28;20177;-65
2022/03/05 06:52:15;;;;;;;11.10;4.43;;;5.40;99.90;;;;;;5052418;28;20655;-65
2022/03/05 06:54:42;;;;;;;12.27;4.57;;;5.30;99.90;;;;;;5053033;28;20166;-65
2022/03/05 06:57:08;;;;;;;12.73;4.87;;;5.20;99.90;;;;;;5052359;28;20173;-65
2022/03/05 06:59:33;;;;;;;13.67;5.57;;;5.30;99.90;;;;;;5051030;28;20184;-64
2022/03/05 07:01:59;;;;;;;15.30;5.57;;;5.20;99.90;;;;;;5051817;28;20165;-66
2022/03/05 07:04:25;;;;;;;16.50;5.63;;;5.30;99.90;;;;;;5049770;28;20217;-65
2022/03/05 07:06:51;;;;;;;20.53;5.70;;;5.20;99.90;;;;;;5051285;28;20628;-65
2022/03/05 07:09:16;;;;;;;11.13;4.87;;;5.20;99.90;;;;;;5052338;28;20168;-66
2022/03/05 07:11:42;;;;;;;13.67;5.87;;;5.10;99.90;;;;;;5051668;28;20177;-66
2022/03/05 07:14:08;;;;;;;11.33;5.77;;;5.20;99.90;;;;;;5052328;28;20252;-67
2022/03/05 07:16:34;;;;;;;11.33;5.03;;;5.30;99.90;;;;;;5051835;28;20177;-67
2022/03/05 07:18:59;;;;;;;9.27;5.27;;;5.20;99.90;;;;;;5041941;28;20247;-66
2022/03/05 07:21:25;;;;;;;13.57;5.47;;;5.40;99.90;;;;;;5044164;28;20726;-66
2022/03/05 07:23:51;;;;;;;14.13;5.73;;;5.20;99.90;;;;;;5052481;28;20648;-66
2022/03/05 07:26:17;;;;;;;10.83;5.70;;;5.20;99.90;;;;;;5047856;28;20205;-67
2022/03/05 07:28:45;;;;;;;10.73;5.50;;;5.30;99.90;;;;;;5051276;28;20162;-67
2022/03/05 07:31:10;;;;;;;11.20;5.17;;;5.30;99.90;;;;;;5050929;28;20239;-65
2022/03/05 07:33:36;;;;;;;9.63;5.83;;;5.40;99.90;;;;;;5046992;28;20604;-65
2022/03/05 07:36:05;;;;;;;12.10;5.93;;;5.50;99.90;;;;;;5050698;28;20181;-66
2022/03/05 07:38:31;;;;;;;13.77;5.90;;;5.40;99.90;;;;;;5031985;28;20213;-64
2022/03/05 07:40:57;;;;;;;8.60;5.60;;;5.40;99.90;;;;;;5034545;28;20184;-65
2022/03/05 07:43:23;;;;;;;14.03;5.07;;;5.50;99.90;;;;;;5047338;28;20612;-65
2022/03/05 07:45:49;;;;;;;12.30;5.23;;;5.60;99.90;;;;;;5046185;28;20239;-60
2022/03/05 07:48:19;;;;;;;8.93;5.00;;;5.70;99.90;;;;;;5041986;28;20189;-59
2022/03/05 07:50:48;;;;;;;9.73;5.07;;;5.90;99.90;;;;;;5050610;28;20177;-58
2022/03/05 07:53:14;;;;;;;9.53;5.57;;;5.90;99.90;;;;;;5031679;28;20162;-63
2022/03/05 07:55:40;;;;;;;12.23;5.50;;;5.90;99.90;;;;;;5030453;28;20220;-65
2022/03/05 07:58:06;;;;;;;16.83;5.87;;;6.00;99.90;;;;;;5030524;28;20174;-66
2022/03/05 08:00:31;;;;;;;8.30;5.00;;;6.00;99.90;;;;;;5035024;28;20639;-66
2022/03/05 08:02:57;;;;;;;14.53;5.40;;;6.20;99.90;;;;;;5049043;28;20184;-70
2022/03/05 08:05:23;;;;;;;12.33;4.60;;;6.30;99.90;;;;;;5040923;28;20220;-72
2022/03/05 08:07:49;;;;;;;10.50;4.00;;;6.30;99.90;;;;;;5036005;28;20173;-73
2022/03/05 08:10:15;;;;;;;6.87;3.70;;;6.40;99.90;;;;;;5051606;28;20165;-73
2022/03/05 08:12:42;;;;;;;9.50;3.80;;;6.50;99.90;;;;;;5048327;28;20557;-73
2022/03/05 08:15:08;;;;;;;9.83;4.00;;;6.70;99.90;;;;;;5050727;28;20250;-72
2022/03/05 08:17:34;;;;;;;8.03;3.60;;;6.90;99.90;;;;;;5045025;28;20228;-69
2022/03/05 08:20:00;;;;;;;7.10;3.17;;;7.00;99.90;;;;;;5030671;28;20582;-68
2022/03/05 08:22:26;;;;;;;9.23;3.23;;;7.20;99.90;;;;;;5031066;28;20312;-71
2022/03/05 08:24:51;;;;;;;10.60;3.17;;;7.40;99.90;;;;;;5030908;28;20280;-72
2022/03/05 08:27:17;;;;;;;9.33;2.83;;;8.60;99.90;;;;;;5031069;28;20545;-72
2022/03/05 08:29:44;;;;;;;8.27;2.40;;;7.80;99.90;;;;;;5038584;28;20493;-71
2022/03/05 08:32:10;;;;;;;6.57;2.60;;;7.90;99.90;;;;;;5033710;28;20170;-73
2022/03/05 08:34:35;;;;;;;8.40;2.53;;;7.60;99.90;;;;;;5029469;28;20174;-65
2022/03/05 08:37:01;;;;;;;4.80;2.50;;;7.40;99.90;;;;;;5030546;28;20664;-71
2022/03/05 08:39:28;;;;;;;6.67;2.30;;;7.30;99.90;;;;;;5029889;28;20166;-73
2022/03/05 08:41:54;;;;;;;6.20;2.37;;;7.40;99.90;;;;;;5029792;28;20170;-71
2022/03/05 08:44:20;;;;;;;4.77;2.57;;;7.50;99.90;;;;;;5029666;28;20321;-71
2022/03/05 08:46:46;;;;;;;8.90;2.57;;;7.40;99.90;;;;;;5038185;28;20253;-69
2022/03/05 08:49:12;;;;;;;7.87;2.40;;;7.50;99.90;;;;;;5030015;28;20228;-71
2022/03/05 08:51:38;;;;;;;5.63;2.30;;;7.40;99.90;;;;;;5030399;28;20177;-72
2022/03/05 08:54:04;;;;;;;5.37;1.57;;;7.30;99.90;;;;;;5030283;28;20178;-72
2022/03/05 08:56:30;;;;;;;6.40;2.13;;;7.40;99.90;;;;;;5030867;28;20177;-73
2022/03/05 08:58:55;;;;;;;4.80;2.13;;;7.50;99.90;;;;;;5030821;28;20178;-73
2022/03/05 09:01:21;;;;;;;5.57;1.80;;;7.60;99.90;;;;;;5036685;28;20256;-70
2022/03/05 09:03:47;;;;;;;4.10;1.60;;;7.50;99.90;;;;;;5030417;28;20173;-71
2022/03/05 09:06:12;;;;;;;7.93;1.70;;;7.40;99.90;;;;;;5030259;28;20218;-73
2022/03/05 09:08:38;;;;;;;7.27;1.80;;;7.20;99.90;;;;;;5029231;28;20264;-73
2022/03/05 09:11:05;;;;;;;3.90;1.53;;;7.20;99.90;;;;;;5038244;28;20177;-70
2022/03/05 09:13:31;;;;;;;4.57;1.27;;;7.10;99.90;;;;;;5047961;28;20268;-69
2022/03/05 09:15:56;;;;;;;3.30;1.40;;;7.10;99.90;;;;;;5048475;28;20260;-69
2022/03/05 09:18:22;;;;;;;4.20;1.17;;;7.00;99.90;;;;;;5050062;28;20188;-70
2022/03/05 09:20:48;;;;;;;3.40;1.20;;;7.00;99.90;;;;;;5050104;28;20177;-70
2022/03/05 09:23:15;;;;;;;1.50;0.90;;;7.00;99.90;;;;;;5050202;28;20187;-71
2022/03/05 09:25:41;;;;;;;4.60;1.10;;;7.00;99.90;;;;;;5050134;28;20270;-68
2022/03/05 09:28:07;;;;;;;3.63;1.00;;;7.00;99.90;;;;;;5050501;28;20204;-66
2022/03/05 09:30:33;;;;;;;4.93;0.80;;;7.00;99.90;;;;;;5049202;28;20254;-65
2022/03/05 09:32:59;;;;;;;5.60;1.10;;;7.00;99.90;;;;;;5035145;28;20629;-65
2022/03/05 09:35:25;;;;;;;3.73;1.10;;;7.10;99.90;;;;;;5029983;28;20217;-63
2022/03/05 09:37:51;;;;;;;4.30;0.70;;;7.10;99.90;;;;;;5029279;28;20204;-63
2022/03/05 09:40:17;;;;;;;5.57;0.87;;;7.20;99.90;;;;;;5034873;28;20173;-67
2022/03/05 09:42:44;;;;;;;2.80;0.80;;;7.30;99.90;;;;;;5048841;28;20217;-68
2022/03/05 09:45:11;;;;;;;2.30;0.67;;;7.40;99.90;;;;;;5049930;28;20201;-67
2022/03/05 09:47:39;;;;;;;3.37;0.97;;;7.50;99.90;;;;;;5049941;28;20200;-67
2022/03/05 09:50:06;;;;;;;6.00;0.90;;;7.40;99.90;;;;;;5052424;28;20248;-64
2022/03/05 09:52:32;;;;;;;6.37;1.07;;;7.50;99.90;;;;;;5052334;28;20281;-67
2022/03/05 09:54:57;;;;;;;3.37;1.03;;;7.40;99.90;;;;;;5053479;28;20176;-67
2022/03/05 09:57:23;;;;;;;5.63;1.20;;;7.70;99.90;;;;;;5053267;28;20176;-65
2022/03/05 09:59:48;;;;;;;9.03;1.13;;;7.60;99.90;;;;;;5053032;28;20169;-67
2022/03/05 10:02:15;;;;;;;6.83;1.13;;;7.80;99.90;;;;;;5038536;28;20186;-68
2022/03/05 10:04:41;;;;;;;4.20;1.20;;;7.80;99.90;;;;;;5045701;28;20442;-68
2022/03/05 10:07:10;;;;;;;8.93;1.30;;;7.90;99.90;;;;;;5052754;28;20602;-68
2022/03/05 10:09:36;;;;;;;3.87;1.40;;;8.00;99.90;;;;;;5053045;28;20178;-68
2022/03/05 10:12:22;;;;;;;4.93;1.20;;;7.70;99.90;;;;;;5052178;28;20200;-67
2022/03/05 10:15:08;;;;;;;5.67;1.30;;;7.60;99.90;;;;;;5052592;28;20177;-67
2022/03/05 10:17:45;;;;;;;4.83;1.20;;;7.60;99.90;;;;;;5057529;28;20577;-67
2022/03/05 10:20:11;;;;;;;2.60;1.20;;;7.60;99.90;;;;;;5051414;28;20646;-69
2022/03/05 10:22:37;;;;;;;3.13;1.20;;;7.50;99.90;;;;;;5046611;28;20177;-67
2022/03/05 10:25:03;;;;;;;2.60;1.40;;;7.70;99.90;;;;;;5041302;28;20234;-67
2022/03/05 10:27:30;;;;;;;4.53;1.53;;;7.70;99.90;;;;;;5049335;28;20206;-68
2022/03/05 10:29:57;;;;;;;6.63;1.63;;;7.60;99.90;;;;;;5040211;28;20170;-67
2022/03/05 10:32:22;;;;;;;2.60;1.20;;;7.70;99.90;;;;;;5050534;28;20177;-67
2022/03/05 10:34:49;;;;;;;7.40;1.40;;;7.80;99.90;;;;;;5040041;28;20620;-68
2022/03/05 10:37:15;;;;;;;3.70;1.30;;;8.00;99.90;;;;;;5046182;28;20173;-68
2022/03/05 10:39:41;;;;;;;9.10;1.50;;;8.10;99.90;;;;;;5053305;28;20170;-62
2022/03/05 10:42:20;;;;;;;4.47;1.43;;;7.90;99.90;;;;;;5046880;28;20180;-62
2022/03/05 10:45:02;;;;;;;5.87;1.77;;;8.00;99.90;;;;;;5052261;28;20266;-61
2022/03/05 10:47:39;;;;;;;8.33;1.40;;;7.90;99.90;;;;;;5052115;28;20530;-61
2022/03/05 10:50:19;;;;;;;4.80;1.60;;;8.00;99.90;;;;;;5052059;28;20198;-61
2022/03/05 10:52:48;;;;;;;5.57;1.43;;;8.10;99.90;;;;;;5044606;28;20162;-61
2022/03/05 10:55:19;;;;;;;3.40;1.40;;;8.20;99.90;;;;;;5030901;28;20235;-62
2022/03/05 10:58:06;;;;;;;12.27;1.80;;;8.20;99.90;;;;;;5033206;28;20201;-62
2022/03/05 11:00:31;;;;;;;6.37;1.67;;;8.00;99.90;;;;;;5032363;28;20170;-62
2022/03/05 11:03:00;;;;;;;6.10;1.50;;;8.30;99.90;;;;;;5031424;28;21389;-61
2022/03/05 11:05:27;;;;;;;14.03;2.20;;;9.10;99.90;;;;;;5039643;28;20217;-61
2022/03/05 11:07:54;;;;;;;12.10;1.50;;;9.00;99.90;;;;;;5052689;28;20227;-61
2022/03/05 11:10:24;;;;;;;2.67;0.97;;;8.70;99.90;;;;;;5052697;28;20212;-61
2022/03/05 11:12:52;;;;;;;6.67;1.40;;;8.70;99.90;;;;;;5051322;28;20188;-61
2022/03/05 11:15:18;;;;;;;3.00;1.40;;;8.60;99.90;;;;;;5052549;28;20213;-61
2022/03/05 11:17:46;;;;;;;5.10;1.50;;;8.70;99.90;;;;;;5052542;28;20165;-61
2022/03/05 11:20:13;;;;;;;6.73;1.77;;;9.30;99.90;;;;;;5052610;28;20173;-61
2022/03/05 11:22:41;;;;;;;3.40;1.27;;;9.10;99.90;;;;;;5052506;28;20177;-61
2022/03/05 11:25:11;;;;;;;7.80;1.27;;;9.10;99.90;;;;;;5052390;28;20213;-61
2022/03/05 11:27:37;;;;;;;4.13;1.37;;;9.10;99.90;;;;;;5044707;28;20264;-62
2022/03/05 11:30:06;;;;;;;8.03;1.47;;;9.30;99.90;;;;;;5032996;28;20621;-60
2022/03/05 11:32:35;;;;;;;6.77;1.53;;;9.70;99.90;;;;;;5050938;28;20174;-61
2022/03/05 11:35:16;;;;;;;6.03;1.50;;;10.40;99.90;;;;;;5047061;28;20181;-62
2022/03/05 11:37:43;;;;;;;2.90;1.30;;;10.40;99.90;;;;;;5050930;28;20185;-62
2022/03/05 11:40:43;;;;;;;4.83;1.10;;;9.90;99.90;;;;;;5052306;28;20176;-62
2022/03/05 11:43:17;;;;;;;5.83;1.70;;;10.10;99.90;;;;;;5052085;28;20263;-61
2022/03/05 11:46:02;;;;;;;5.03;1.30;;;9.70;99.90;;;;;;5050981;28;20233;-61
2022/03/05 11:48:30;;;;;;;4.67;1.43;;;10.00;99.90;;;;;;5046840;28;20698;-62
2022/03/05 11:51:06;;;;;;;3.33;1.30;;;10.10;99.90;;;;;;5048116;28;20180;-62
2022/03/05 11:53:32;;;;;;;3.13;1.20;;;10.40;99.90;;;;;;5051803;28;20215;-64
2022/03/05 11:56:20;;;;;;;7.70;1.50;;;10.00;99.90;;;;;;5051150;28;20205;-62
2022/03/05 11:58:46;;;;;;;6.60;1.50;;;10.80;99.90;;;;;;5051773;28;20173;-62
2022/03/05 12:01:41;;;;;;;4.40;1.53;;;12.80;99.90;;;;;;5051573;28;20219;-64
2022/03/05 12:04:22;;;;;;;2.38;1.10;;;13.60;99.90;;;;;;5046486;28;20212;-64
2022/03/05 12:06:51;;;;;;;4.15;1.25;;;13.50;99.90;;;;;;5051383;28;20205;-64
2022/03/05 12:09:41;;;;;;;4.75;1.25;;;12.70;99.90;;;;;;5051266;28;20640;-64
2022/03/05 12:12:14;;;;;;;2.55;1.00;;;11.90;99.90;;;;;;5051066;28;20590;-64
2022/03/05 12:14:55;;;;;;;4.63;1.00;;;13.20;99.90;;;;;;5050243;28;20165;-64
2022/03/05 12:17:25;;;;;;;3.38;1.13;;;13.40;99.90;;;;;;5051135;28;20544;-65
2022/03/05 12:19:53;;;;;;;3.60;0.98;;;13.60;99.90;;;;;;5051476;28;20247;-64
2022/03/05 12:22:19;;;;;;;4.10;1.35;;;14.80;99.90;;;;;;5051384;28;20227;-65
2022/03/05 12:24:45;;;;;;;3.83;1.05;;;16.20;99.90;;;;;;5042852;28;20193;-64
2022/03/05 12:27:15;;;;;;;4.97;1.10;;;16.90;99.90;;;;;;5051049;28;20173;-65
2022/03/05 12:29:47;;;;;;;6.38;1.30;;;16.50;99.90;;;;;;5046934;28;20173;-64
2022/03/05 12:32:17;;;;;;;4.05;1.38;;;16.20;99.90;;;;;;5034964;28;20269;-64
2022/03/05 12:34:43;;;;;;;4.22;1.42;;;16.00;99.90;;;;;;5049341;28;20177;-65
2022/03/05 12:37:09;;;;;;;3.55;0.98;;;15.00;99.90;;;;;;5044562;28;20520;-64
2022/03/05 12:39:42;;;;;;;3.17;1.13;;;13.80;99.90;;;;;;5048024;28;20170;-64
2022/03/05 12:42:08;;;;;;;2.13;0.93;;;13.70;99.90;;;;;;5039712;28;20205;-64
2022/03/05 12:44:38;;;;;;;6.70;1.30;;;14.00;99.90;;;;;;5050496;28;20232;-64
2022/03/05 12:47:04;;;;;;;4.70;1.00;;;13.70;99.90;;;;;;5033220;28;20232;-64
2022/03/05 12:49:30;;;;;;;4.78;1.42;;;13.50;99.90;;;;;;5049242;28;20173;-63
2022/03/05 12:51:56;;;;;;;3.55;1.10;;;13.30;99.90;;;;;;5050189;28;20177;-63
2022/03/05 12:54:21;;;;;;;7.13;1.48;;;11.90;99.90;;;;;;5050110;28;20713;-63